KLGF

Laguna AAF (Yuma Proving Ground) Airport

Yuma Proving Ground(Yuma), Arizona, USA
METAR KLGF 151858Z AUTO 31009KT 10SM CLR 18/05 A3003 RMK AO2 SLPNO T01780048 $
Observed Flight Rules
Feb-15 @ 18:58 UTC (22 minutes ago) Visual Flight Rules
Wind Visibility Clouds
310° at 9 knots 10 miles
  • Clear skies
Temperatures Readings
Current 18°C / 64°F
Dewpoint 5°C / 41°F
Humidity 43%
Altimeter 30.03" Hg
Pressure 1016.92 hPa
Elevation 132
METAR KLGF 151858Z AUTO 31009KT 10SM CLR 18/05 A3003 RMK AO2 SLPNO T01780048 $
Observed Flight Rules
Feb-15 @ 18:58 UTC
(22 minutes ago)
VFR
Wind Visibility
310° at 9 knots 10 miles
Clouds
  • Clear skies
Temperature Dewpoint
18°C / 64°F 5°C / 41°F
Humidity Altimeter Pressure
43% 30.03" Hg 1016.92 hPa